createdAt,value
2019-05-05T00:09:17.512Z,60.05
2019-05-05T00:19:29.753Z,59.45
2019-05-05T00:29:22.326Z,60.20
2019-05-05T00:39:25.562Z,59.89
2019-05-05T00:49:42.794Z,59.54
2019-05-05T00:59:34.818Z,59.26
2019-05-05T01:09:38.288Z,59.16
2019-05-05T01:19:39.580Z,59.20
2019-05-05T01:29:41.113Z,59.30
2019-05-05T01:39:47.113Z,59.46
2019-05-05T01:49:48.415Z,59.87
2019-05-05T01:59:49.711Z,60.44
2019-05-05T02:09:52.241Z,60.86
2019-05-05T02:19:54.905Z,61.18
2019-05-05T02:29:58.627Z,61.13
2019-05-05T02:40:06.461Z,61.85
2019-05-05T02:50:07.339Z,62.29
2019-05-05T03:00:13.408Z,61.07
2019-05-05T03:10:14.812Z,61.32
2019-05-05T03:20:16.122Z,61.01
2019-05-05T03:30:17.506Z,60.37
2019-05-05T03:40:20.746Z,60.13
2019-05-05T03:50:23.755Z,60.77
2019-05-05T04:00:45.417Z,60.08
2019-05-05T04:10:46.817Z,59.57
2019-05-05T04:20:48.207Z,60.16
2019-05-05T04:30:50.429Z,59.39
2019-05-05T04:40:54.064Z,58.59
2019-05-05T04:50:57.705Z,57.00
2019-05-05T05:00:59.028Z,54.98
2019-05-05T05:11:00.479Z,52.79
2019-05-05T05:21:03.964Z,50.56
2019-05-05T05:31:05.676Z,49.54
2019-05-05T05:41:08.999Z,48.11
2019-05-05T05:51:15.026Z,45.18
2019-05-05T06:01:17.306Z,43.42
2019-05-05T06:11:18.732Z,43.23
2019-05-05T06:21:20.170Z,41.44
2019-05-05T06:31:24.447Z,40.88
2019-05-05T06:41:30.615Z,41.14
2019-05-05T06:51:33.544Z,41.69
2019-05-05T07:01:35.976Z,42.58
2019-05-05T07:11:37.415Z,42.69
2019-05-05T07:21:38.840Z,40.47
2019-05-05T07:31:40.260Z,39.88
2019-05-05T07:41:41.765Z,38.28
2019-05-05T07:51:44.210Z,34.54
2019-05-05T08:01:46.686Z,32.25
2019-05-05T08:11:48.293Z,25.17
2019-05-05T08:21:49.565Z,24.14
2019-05-05T08:31:58.920Z,24.59
2019-05-05T08:42:00.139Z,29.50
2019-05-05T08:52:03.848Z,31.19
2019-05-05T09:02:04.815Z,31.03
2019-05-05T09:12:06.353Z,29.82
2019-05-05T09:22:08.810Z,28.55
2019-05-05T09:32:10.420Z,29.29
2019-05-05T09:42:14.593Z,25.52
2019-05-05T09:52:15.791Z,25.52
2019-05-05T10:02:17.304Z,24.05
2019-05-05T10:12:18.751Z,24.47
2019-05-05T10:22:20.175Z,26.91
2019-05-05T10:32:21.476Z,25.88
2019-05-05T10:42:24.713Z,25.88
2019-05-05T10:52:26.066Z,27.79
2019-05-05T11:02:27.614Z,25.45
2019-05-05T11:12:29.047Z,22.05
2019-05-05T11:22:30.256Z,24.63
2019-05-05T11:32:49.873Z,27.63
2019-05-05T11:42:51.186Z,26.20
2019-05-05T11:52:54.490Z,23.69
2019-05-05T12:02:56.233Z,21.06
2019-05-05T12:12:59.339Z,21.36
2019-05-05T12:23:01.378Z,23.73
2019-05-05T12:33:04.738Z,22.84
2019-05-05T12:43:06.417Z,22.87
2019-05-05T12:53:07.960Z,23.75
2019-05-05T13:03:09.357Z,24.70
2019-05-05T13:13:11.151Z,22.99
2019-05-05T13:23:20.036Z,29.54
2019-05-05T13:33:21.578Z,32.02
2019-05-05T13:43:23.776Z,30.70
2019-05-05T13:53:25.356Z,28.04
2019-05-05T14:03:26.623Z,26.57
2019-05-05T14:13:28.042Z,23.56
2019-05-05T14:23:31.274Z,22.27
2019-05-05T14:33:34.618Z,23.10
2019-05-05T14:43:36.039Z,22.93
2019-05-05T14:53:37.490Z,22.91
2019-05-05T15:03:38.995Z,19.90
2019-05-05T15:13:40.438Z,22.06
2019-05-05T15:23:43.588Z,22.06
2019-05-05T15:33:45.173Z,23.22
2019-05-05T15:43:46.398Z,23.03
2019-05-05T15:53:48.530Z,25.46
2019-05-05T16:03:50.013Z,28.68
2019-05-05T16:13:51.270Z,27.10
2019-05-05T16:23:54.690Z,28.82
2019-05-05T16:33:56.234Z,29.04
2019-05-05T16:43:57.542Z,29.33
2019-05-05T16:54:01.005Z,27.11
2019-05-05T17:04:11.109Z,28.41
2019-05-05T17:14:07.880Z,29.92
2019-05-05T17:24:09.326Z,31.37
2019-05-05T17:34:10.620Z,30.64
2019-05-05T17:44:14.150Z,32.17
2019-05-05T17:54:17.379Z,32.47
2019-05-05T18:04:19.795Z,33.11
2019-05-05T18:14:24.037Z,33.34
2019-05-05T18:24:25.373Z,34.04
2019-05-05T18:34:26.789Z,34.88
2019-05-05T18:44:41.558Z,35.42
2019-05-05T18:54:43.682Z,36.00
2019-05-05T19:05:01.944Z,36.37
2019-05-05T19:15:05.504Z,37.24
2019-05-05T19:25:16.639Z,38.30
2019-05-05T19:35:18.620Z,39.29
2019-05-05T19:45:20.250Z,40.55
2019-05-05T19:55:21.815Z,41.88
2019-05-05T20:05:24.564Z,42.22
2019-05-05T20:15:27.924Z,42.90
2019-05-05T20:25:29.499Z,43.46
2019-05-05T20:35:33.802Z,44.39
2019-05-05T20:45:35.335Z,45.44
2019-05-05T20:55:36.531Z,46.10
2019-05-05T21:05:38.036Z,46.56
2019-05-05T21:15:39.993Z,47.38
2019-05-05T21:25:59.545Z,47.58
2019-05-05T21:36:00.971Z,47.33
2019-05-05T21:46:04.433Z,47.71
2019-05-05T21:56:07.871Z,47.69
2019-05-05T22:06:09.380Z,48.06
2019-05-05T22:16:10.700Z,48.70
2019-05-05T22:26:12.135Z,49.38
2019-05-05T22:36:14.202Z,49.49
2019-05-05T22:46:15.686Z,49.54
2019-05-05T22:56:17.082Z,49.75
2019-05-05T23:06:20.314Z,52.56
2019-05-05T23:16:30.772Z,54.15
2019-05-05T23:26:39.891Z,53.92
2019-05-05T23:36:41.269Z,53.11
2019-05-05T23:46:42.693Z,53.31
2019-05-05T23:56:44.202Z,52.96
